Time;durP1;ratioP1;P1;durP2;ratioP2;P2;SDS_P1;SDS_P2;PMS_P1;PMS_P2;Temp;Humidity;BMP_temperature;BMP_pressure;BME280_temperature;BME280_humidity;BME280_pressure;Samples;Min_cycle;Max_cycle;Signal;HPM_P1;HPM_P2
2022/05/23 00:01:52;;;;;;;7.37;3.60;;;;;;;10.61;100.00;98714.63;1729464;81;20146;-64
2022/05/23 00:04:18;;;;;;;;;;;;;;;10.61;100.00;98720.08;1739084;81;20975;-64
2022/05/23 00:06:46;;;;;;;6.08;3.55;;;;;;;10.64;100.00;98720.30;1731223;81;20092;-65
2022/05/23 00:09:14;;;;;;;5.95;3.87;;;;;;;10.63;100.00;98724.69;1744637;81;20937;-65
2022/05/23 00:11:42;;;;;;;9.93;4.15;;;;;;;10.63;100.00;98714.59;1740154;81;21840;-64
2022/05/23 00:14:10;;;;;;;9.98;4.28;;;;;;;10.64;100.00;98729.81;1746107;81;21018;-63
2022/05/23 00:16:43;;;;;;;9.30;4.75;;;;;;;10.65;100.00;98722.47;1742831;81;21059;-63
2022/05/23 00:19:11;;;;;;;8.75;4.72;;;;;;;10.62;100.00;98725.23;1738162;81;21005;-64
2022/05/23 00:21:42;;;;;;;10.03;5.00;;;;;;;10.65;100.00;98720.55;1739149;81;21101;-63
2022/05/23 00:24:09;;;;;;;9.78;5.55;;;;;;;10.61;100.00;98711.91;1738050;81;21018;-64
2022/05/23 00:26:36;;;;;;;8.75;4.80;;;;;;;10.63;100.00;98724.69;1725087;81;21655;-64
2022/05/23 00:29:03;;;;;;;6.87;4.70;;;;;;;10.60;100.00;98736.95;1740367;81;21043;-65
2022/05/23 00:31:29;;;;;;;8.88;4.70;;;;;;;10.62;100.00;98735.31;1737658;81;21018;-64
2022/05/23 00:36:28;;;;;;;7.00;4.22;;;;;;;10.64;100.00;98739.89;1695890;81;21051;-64
2022/05/23 00:38:54;;;;;;;6.92;4.58;;;;;;;10.64;100.00;98738.53;1737919;81;21019;-65
2022/05/23 00:44:32;;;;;;;8.03;5.17;;;;;;;10.60;100.00;98742.94;1747001;81;21023;-64
2022/05/23 00:47:19;;;;;;;7.35;5.20;;;;;;;10.56;100.00;98741.94;1745594;81;21066;-63
2022/05/23 00:49:45;;;;;;;7.62;4.47;;;;;;;10.57;100.00;98740.81;1704486;83;21012;-64
2022/05/23 00:52:20;;;;;;;9.25;4.40;;;;;;;10.58;100.00;98747.89;1714791;82;21062;-65
2022/05/23 00:54:47;;;;;;;8.58;4.47;;;;;;;10.57;100.00;98748.98;1710377;81;21004;-63
2022/05/23 00:57:17;;;;;;;9.38;5.25;;;;;;;10.59;100.00;98751.69;1726568;81;21150;-63
2022/05/23 00:59:43;;;;;;;9.20;6.83;;;;;;;10.58;100.00;98744.62;1727823;81;21007;-63
2022/05/23 01:02:12;;;;;;;16.37;10.03;;;;;;;10.61;100.00;98745.38;1746503;81;21110;-64
2022/05/23 01:04:41;;;;;;;18.05;11.10;;;;;;;10.60;100.00;98734.78;1741073;81;22157;-63
2022/05/23 01:07:08;;;;;;;25.23;14.45;;;;;;;10.61;100.00;98748.10;1724585;82;21067;-64
2022/05/23 01:09:35;;;;;;;24.85;13.58;;;;;;;10.52;100.00;98743.63;1743760;81;21027;-64
2022/05/23 01:12:02;;;;;;;19.35;11.65;;;;;;;10.44;100.00;98748.64;1743524;81;21123;-66
2022/05/23 01:14:54;;;;;;;24.32;13.68;;;;;;;10.41;100.00;98745.70;1731579;81;21076;-65
2022/05/23 01:17:22;;;;;;;23.15;12.90;;;;;;;10.41;100.00;98749.23;1734249;81;21067;-64
2022/05/23 01:19:49;;;;;;;19.98;12.25;;;;;;;10.39;100.00;98748.70;1736511;81;21545;-64
2022/05/23 01:22:36;;;;;;;23.07;12.82;;;;;;;10.41;100.00;98753.31;1735692;81;21096;-65
2022/05/23 01:25:19;;;;;;;24.75;13.80;;;;;;;10.42;100.00;98758.98;1729285;81;21032;-64
2022/05/23 01:27:47;;;;;;;21.50;13.30;;;;;;;10.31;100.00;98756.15;1746443;81;21050;-64
2022/05/23 01:30:15;;;;;;;18.73;11.73;;;;;;;10.24;100.00;98750.81;1747601;81;21313;-63
2022/05/23 01:32:44;;;;;;;18.27;11.38;;;;;;;10.37;100.00;98767.24;1753933;82;21138;-64
2022/05/23 01:35:11;;;;;;;23.10;11.00;;;;;;;10.37;100.00;98769.96;1751183;81;21580;-65
2022/05/23 01:37:38;;;;;;;18.00;10.28;;;;;;;10.38;100.00;98764.75;1749523;81;21018;-64
2022/05/23 01:40:12;;;;;;;15.40;10.58;;;;;;;10.43;100.00;98770.69;1737400;81;21024;-64
2022/05/23 01:42:49;;;;;;;14.98;9.60;;;;;;;10.33;100.00;98773.01;1730876;81;21066;-63
2022/05/23 01:45:20;;;;;;;13.85;9.90;;;;;;;10.26;100.00;98771.75;1750593;81;20924;-63
2022/05/23 01:47:47;;;;;;;16.52;9.85;;;;;;;10.28;100.00;98770.89;1720790;81;21577;-64
2022/05/23 01:50:14;;;;;;;16.05;10.18;;;;;;;10.30;100.00;98760.54;1752965;81;21022;-63
2022/05/23 01:52:43;;;;;;;19.67;10.58;;;;;;;10.21;100.00;98771.80;1735479;81;21070;-64
2022/05/23 01:55:12;;;;;;;16.65;9.55;;;;;;;10.14;100.00;98761.80;1752468;81;21073;-63
2022/05/23 01:57:40;;;;;;;13.40;8.90;;;;;;;10.11;100.00;98777.34;1727018;81;21121;-64
2022/05/23 02:02:54;;;;;;;20.88;12.88;;;;;;;10.14;100.00;98783.56;1730570;81;21558;-63
2022/05/23 02:05:21;;;;;;;18.02;11.15;;;;;;;10.08;100.00;98782.02;1737627;81;20936;-62
2022/05/23 02:07:47;;;;;;;18.60;12.10;;;;;;;10.03;100.00;98779.34;1754926;82;21086;-63
2022/05/23 02:10:14;;;;;;;;;;;;;;;9.99;100.00;98781.28;1727369;81;21090;-64
2022/05/23 02:12:44;;;;;;;21.85;13.15;;;;;;;10.03;100.00;98790.22;1747650;80;20154;-63
2022/05/23 02:15:14;;;;;;;30.68;17.07;;;;;;;9.97;100.00;98790.30;1711593;82;21054;-64
2022/05/23 02:18:01;;;;;;;33.42;19.65;;;;;;;9.97;100.00;98793.02;1663110;85;21142;-63
2022/05/23 02:20:28;;;;;;;37.65;21.65;;;;;;;9.93;100.00;98789.80;1722688;81;21500;-62
2022/05/23 02:22:55;;;;;;;42.65;21.65;;;;;;;9.92;100.00;98793.06;1747923;81;21580;-63
2022/05/23 02:25:24;;;;;;;36.85;21.23;;;;;;;9.92;100.00;98798.50;1742443;81;21139;-64
2022/05/23 02:27:51;;;;;;;43.35;23.27;;;;;;;9.87;100.00;98800.48;1736601;81;21026;-62
2022/05/23 02:30:19;;;;;;;36.23;21.40;;;;;;;9.81;100.00;98797.00;1752408;81;21027;-63
2022/05/23 02:32:46;;;;;;;34.83;20.60;;;;;;;9.78;100.00;98799.48;1750413;81;21522;-62
2022/05/23 02:35:15;;;;;;;33.40;20.17;;;;;;;9.81;100.00;98803.01;1752503;81;21011;-62
2022/05/23 02:37:42;;;;;;;33.20;19.10;;;;;;;9.76;100.00;98809.30;1724080;82;21042;-64
2022/05/23 02:40:11;;;;;;;34.73;20.40;;;;;;;9.71;100.00;98793.58;1744148;81;21438;-63
2022/05/23 02:42:38;;;;;;;24.32;14.93;;;;;;;9.79;100.00;98811.98;1744950;81;21062;-62
2022/05/23 02:45:10;;;;;;;;;;;;;;;9.79;100.00;98817.42;1754187;81;21021;-62
2022/05/23 02:47:37;;;;;;;23.15;13.18;;;;;;;9.74;100.00;98824.29;1712337;82;20184;-62
2022/05/23 02:50:05;;;;;;;18.37;11.78;;;;;;;9.59;100.00;98818.45;1742929;81;20943;-63
2022/05/23 02:52:34;;;;;;;18.32;10.32;;;;;;;9.60;100.00;98821.98;1744237;82;21007;-61
2022/05/23 02:55:03;;;;;;;18.95;11.18;;;;;;;9.65;100.00;98820.56;1732770;81;21057;-61
2022/05/23 02:57:30;;;;;;;18.98;9.80;;;;;;;9.67;100.00;98818.38;1725256;82;21039;-62
2022/05/23 02:59:57;;;;;;;15.70;9.30;;;;;;;9.70;100.00;98818.62;1714044;83;21059;-63
2022/05/23 03:05:09;;;;;;;12.03;8.75;;;;;;;9.69;100.00;98822.97;1744622;81;21413;-63
2022/05/23 03:07:37;;;;;;;13.00;8.35;;;;;;;9.68;100.00;98825.42;1740517;82;21030;-62
2022/05/23 03:10:05;;;;;;;9.63;7.00;;;;;;;9.71;100.00;98821.58;1752299;81;21486;-62
2022/05/23 03:12:34;;;;;;;11.57;7.12;;;;;;;9.73;100.00;98830.81;1751880;82;21030;-63
2022/05/23 03:15:03;;;;;;;11.57;7.17;;;;;;;9.69;100.00;98837.38;1713041;83;21039;-61
2022/05/23 03:17:29;;;;;;;7.90;6.35;;;;;;;9.62;100.00;98836.09;1699062;83;21652;-62
2022/05/23 03:19:56;;;;;;;13.78;7.80;;;;;;;9.60;100.00;98843.16;1745080;81;21007;-63
2022/05/23 03:27:53;;;;;;;9.95;7.28;;;;;;;9.55;100.00;98847.30;1741440;81;21094;-64
2022/05/23 03:30:22;;;;;;;8.25;6.53;;;;;;;9.49;100.00;98846.52;1743531;81;21190;-64
2022/05/23 03:32:53;;;;;;;9.75;6.60;;;;;;;9.56;100.00;98849.47;1745158;82;21070;-64
2022/05/23 03:35:20;;;;;;;7.60;6.40;;;;;;;9.62;100.00;98848.31;1745840;81;21502;-63
2022/05/23 03:37:46;;;;;;;12.45;7.83;;;;;;;9.72;100.00;98853.09;1742614;81;21042;-63
2022/05/23 03:40:13;;;;;;;;;;;;;;;9.76;100.00;98855.50;1745240;81;20972;-62
2022/05/23 03:42:41;;;;;;;21.85;12.40;;;;;;;9.83;100.00;98858.70;1747001;82;20108;-63
2022/05/23 03:45:09;;;;;;;23.22;12.90;;;;;;;9.82;100.00;98858.97;1731206;81;21601;-63
2022/05/23 03:47:37;;;;;;;21.73;12.35;;;;;;;9.85;100.00;98863.28;1714716;82;21043;-63
2022/05/23 03:50:09;;;;;;;17.02;10.35;;;;;;;9.93;100.00;98862.66;1735591;81;20928;-63
2022/05/23 03:52:36;;;;;;;17.48;9.88;;;;;;;9.92;100.00;98855.59;1733570;81;21047;-63
2022/05/23 03:55:03;;;;;;;16.00;9.95;;;;;;;9.96;100.00;98858.55;1727962;81;21078;-63
2022/05/23 03:57:30;;;;;;;13.50;9.33;;;;;;;10.06;100.00;98863.87;1720294;81;21006;-63
2022/05/23 03:59:57;;;;;;;21.05;13.35;;;;;;;10.09;100.00;98862.50;1704583;83;21020;-65
2022/05/23 04:02:24;;;;;;;24.02;14.25;;;;;;;10.20;100.00;98863.45;1706490;83;21099;-63
2022/05/23 04:04:51;;;;;;;23.90;14.70;;;;;;;10.22;100.00;98862.64;1739762;81;21471;-63
2022/05/23 04:07:23;;;;;;;28.32;16.35;;;;;;;10.27;100.00;98861.20;1729351;81;21086;-63
2022/05/23 04:09:51;;;;;;;31.68;17.10;;;;;;;10.32;100.00;98861.15;1715427;81;21035;-62
2022/05/23 04:12:19;;;;;;;25.52;16.32;;;;;;;10.31;100.00;98858.70;1741446;81;21090;-63
2022/05/23 04:14:47;;;;;;;28.95;19.48;;;;;;;10.31;100.00;98862.24;1739151;81;20983;-64
2022/05/23 04:17:14;;;;;;;33.30;20.65;;;;;;;10.32;100.00;98855.70;1745553;81;21011;-64
2022/05/23 04:19:41;;;;;;;38.17;23.57;;;;;;;10.36;100.00;98857.30;1743291;81;21055;-64
2022/05/23 04:22:12;;;;;;;31.95;20.30;;;;;;;10.39;100.00;98855.34;1734962;81;21651;-63
2022/05/23 04:24:41;;;;;;;33.73;20.30;;;;;;;10.56;100.00;98860.33;1740591;81;21033;-62
2022/05/23 04:27:08;;;;;;;34.25;20.35;;;;;;;10.84;100.00;98853.94;1728750;81;21464;-63
2022/05/23 04:29:37;;;;;;;36.45;21.48;;;;;;;10.97;100.00;98855.36;1759331;80;21154;-63
2022/05/23 04:35:15;;;;;;;31.87;20.68;;;;;;;11.31;100.00;98855.08;1759208;80;21024;-64
2022/05/23 04:37:48;;;;;;;32.80;20.43;;;;;;;11.56;100.00;98848.94;1751290;80;21122;-62
2022/05/23 04:40:19;;;;;;;25.57;17.25;;;;;;;11.82;100.00;98842.78;1749769;80;20985;-62
2022/05/23 04:42:47;;;;;;;26.33;17.40;;;;;;;11.89;100.00;98843.19;1751693;80;21035;-62
2022/05/23 04:45:14;;;;;;;28.07;19.23;;;;;;;11.91;100.00;98844.23;1752815;80;21058;-62
2022/05/23 04:50:28;;;;;;;24.92;16.27;;;;;;;11.79;100.00;98840.66;1728814;80;21616;-62
2022/05/23 04:52:57;;;;;;;25.50;15.88;;;;;;;11.73;100.00;98839.11;1753890;80;21530;-62
2022/05/23 04:55:24;;;;;;;22.17;14.53;;;;;;;11.78;100.00;98838.22;1729960;81;21019;-64
2022/05/23 04:57:52;;;;;;;24.52;16.12;;;;;;;11.76;100.00;98837.73;1750999;80;21065;-65
2022/05/23 05:00:20;;;;;;;27.05;18.45;;;;;;;11.77;100.00;98831.14;1722483;80;21382;-65
2022/05/23 05:02:52;;;;;;;24.27;17.25;;;;;;;11.87;100.00;98835.84;1758060;80;21573;-64
2022/05/23 05:05:21;;;;;;;22.98;15.40;;;;;;;12.19;100.00;98843.13;1754875;80;21050;-65
2022/05/23 05:07:52;;;;;;;24.18;14.68;;;;;;;12.64;100.00;98848.76;1733537;80;21642;-64
2022/05/23 05:10:21;;;;;;;19.40;13.35;;;;;;;13.06;100.00;98847.53;1752668;80;21026;-64
2022/05/23 05:12:49;;;;;;;23.07;12.50;;;;;;;13.36;100.00;98833.95;1740558;81;21108;-65
2022/05/23 05:15:18;;;;;;;21.42;14.05;;;;;;;13.57;100.00;98836.19;1759037;80;21394;-65
2022/05/23 05:17:44;;;;;;;21.15;13.15;;;;;;;13.69;100.00;98829.01;1759008;81;21101;-62
2022/05/23 05:20:14;;;;;;;20.02;13.05;;;;;;;13.92;100.00;98836.03;1756220;80;21557;-62
2022/05/23 05:22:58;;;;;;;18.00;11.95;;;;;;;14.16;100.00;98826.09;1758693;81;21056;-63
2022/05/23 05:25:27;;;;;;;20.27;12.95;;;;;;;14.32;100.00;98826.44;1723891;81;21137;-62
2022/05/23 05:27:59;;;;;;;16.70;11.68;;;;;;;14.71;100.00;98831.06;1753616;81;21071;-62
2022/05/23 05:30:25;;;;;;;17.62;12.30;;;;;;;14.81;100.00;98827.44;1724860;82;21670;-64
2022/05/23 05:33:10;;;;;;;19.10;12.85;;;;;;;14.92;100.00;98826.00;1744978;81;21009;-62
2022/05/23 05:35:47;;;;;;;18.42;12.90;;;;;;;15.01;100.00;98816.42;1711370;84;21578;-63
2022/05/23 05:38:32;;;;;;;16.93;11.37;;;;;;;14.97;100.00;98817.38;1711877;84;20992;-62
2022/05/23 05:41:09;;;;;;;18.60;11.45;;;;;;;15.07;100.00;98819.23;1711498;84;21035;-62
2022/05/23 05:43:50;;;;;;;18.87;12.30;;;;;;;15.13;100.00;98827.52;1719500;81;21020;-63
2022/05/23 05:46:22;;;;;;;14.23;11.28;;;;;;;15.15;100.00;98824.48;1702969;81;21507;-62
2022/05/23 05:48:50;;;;;;;15.30;10.53;;;;;;;15.19;100.00;98828.19;1706698;84;21028;-63
2022/05/23 05:51:20;;;;;;;14.03;9.83;;;;;;;15.26;100.00;98825.76;1735172;81;21054;-62
2022/05/23 05:54:06;;;;;;;14.10;11.05;;;;;;;15.25;100.00;98825.52;1729639;82;20988;-63
2022/05/23 05:56:35;;;;;;;15.18;9.88;;;;;;;15.37;100.00;98816.86;1724083;81;21586;-65
2022/05/23 05:59:02;;;;;;;12.28;8.83;;;;;;;15.51;100.00;98818.66;1746889;82;21031;-62
2022/05/23 06:01:28;;;;;;;12.28;9.43;;;;;;;15.67;100.00;98824.66;1711025;84;21094;-61
2022/05/23 06:03:56;;;;;;;8.93;7.53;;;;;;;15.67;100.00;98816.98;1747010;82;21456;-63
2022/05/23 06:11:55;;;;;;;11.08;7.22;;;;;;;16.13;100.00;98827.16;1721051;81;21078;-64
2022/05/23 06:14:23;;;;;;;11.40;8.00;;;;;;;16.44;100.00;98826.26;1732944;81;21036;-64
2022/05/23 06:16:49;;;;;;;10.55;6.50;;;;;;;16.78;100.00;98818.41;1720425;82;21529;-66
2022/05/23 06:19:27;;;;;;;9.88;6.55;;;;;;;17.10;100.00;98824.55;1733920;82;21040;-65
2022/05/23 06:22:14;;;;;;;10.28;6.10;;;;;;;17.46;100.00;98815.64;1737637;82;21061;-64
2022/05/23 06:24:44;;;;;;;9.88;6.42;;;;;;;17.58;100.00;98815.70;1720148;81;21020;-65
2022/05/23 06:27:11;;;;;;;11.48;6.85;;;;;;;17.56;100.00;98809.74;1715970;82;21086;-64
2022/05/23 06:29:48;;;;;;;8.70;5.15;;;;;;;17.61;100.00;98819.14;1740700;82;21126;-66
2022/05/23 06:32:29;;;;;;;7.37;4.15;;;;;;;17.71;100.00;98809.67;1707333;82;21039;-64
2022/05/23 06:34:56;;;;;;;8.63;3.95;;;;;;;17.82;100.00;98811.62;1746360;81;21057;-63
2022/05/23 06:37:23;;;;;;;8.40;4.20;;;;;;;18.17;100.00;98815.35;1706884;83;21083;-65
2022/05/23 06:39:52;;;;;;;4.47;3.33;;;;;;;18.21;100.00;98814.30;1708197;82;21083;-66
2022/05/23 06:42:32;;;;;;;6.62;2.58;;;;;;;18.35;100.00;98808.47;1665116;82;21060;-66
2022/05/23 06:45:05;;;;;;;5.87;2.98;;;;;;;18.05;100.00;98812.58;1731552;82;21566;-66
2022/05/23 06:47:50;;;;;;;5.67;2.70;;;;;;;17.68;100.00;98817.20;1740634;82;21029;-67
2022/05/23 06:50:36;;;;;;;10.00;3.75;;;;;;;17.41;100.00;98822.72;1746906;81;21684;-66
2022/05/23 06:53:07;;;;;;;5.33;2.70;;;;;;;17.16;100.00;98814.94;1743644;80;21424;-66
2022/05/23 06:55:35;;;;;;;4.17;2.83;;;;;;;16.96;100.00;98825.39;1743045;82;21065;-65
2022/05/23 06:58:03;;;;;;;5.30;2.40;;;;;;;16.93;100.00;98821.14;1701156;84;21011;-64
2022/05/23 07:00:29;;;;;;;5.97;2.10;;;;;;;17.12;100.00;98818.13;1745888;81;21639;-64
2022/05/23 07:02:58;;;;;;;5.12;2.30;;;;;;;17.28;100.00;98813.63;1722706;82;21357;-65
2022/05/23 07:13:48;;;;;;;7.50;2.10;;;;;;;16.81;100.00;98819.92;1747450;80;21008;-64
2022/05/23 07:16:17;;;;;;;3.65;2.00;;;;;;;16.93;100.00;98826.06;1747273;80;21114;-67
2022/05/23 07:18:45;;;;;;;3.47;1.77;;;;;;;17.09;100.00;98818.00;1745634;80;21039;-61
2022/05/23 07:21:19;;;;;;;4.80;1.92;;;;;;;17.23;100.00;98812.45;1705908;83;21086;-65
2022/05/23 07:23:48;;;;;;;5.25;2.30;;;;;;;17.29;100.00;98812.47;1710047;83;21118;-65
2022/05/23 07:26:17;;;;;;;4.33;2.00;;;;;;;17.33;100.00;98814.78;1688926;84;21094;-65
2022/05/23 07:28:47;;;;;;;3.20;1.92;;;;;;;17.23;100.00;98813.02;1740499;81;21055;-65
2022/05/23 07:31:16;;;;;;;2.67;1.70;;;;;;;17.19;100.00;98810.70;1721116;81;21055;-65
2022/05/23 07:33:43;;;;;;;3.35;2.00;;;;;;;17.22;100.00;98810.84;1742399;82;21111;-66
2022/05/23 07:36:15;;;;;;;5.90;1.98;;;;;;;17.38;100.00;98814.58;1740821;81;21106;-66
2022/05/23 07:38:43;;;;;;;5.15;1.72;;;;;;;17.39;100.00;98814.02;1743514;82;21027;-64
2022/05/23 07:41:12;;;;;;;4.70;2.10;;;;;;;17.43;100.00;98812.98;1737336;81;21150;-65
2022/05/23 07:43:41;;;;;;;4.55;2.10;;;;;;;17.38;100.00;98804.95;1706144;83;21051;-65
2022/05/23 07:46:13;;;;;;;3.85;1.87;;;;;;;17.39;100.00;98810.67;1654074;85;21127;-66
2022/05/23 07:48:45;;;;;;;1.77;1.25;;;;;;;17.35;100.00;98813.89;1678756;84;21045;-63
2022/05/23 07:51:12;;;;;;;3.25;1.75;;;;;;;17.31;100.00;98812.95;1665784;85;21128;-63
2022/05/23 08:01:55;;;;;;;3.87;1.70;;;;;;;18.56;100.00;98801.47;1723333;82;21046;-65
2022/05/23 08:04:22;;;;;;;3.70;1.40;;;;;;;18.93;100.00;98802.98;1743662;82;21482;-65
2022/05/23 08:06:51;;;;;;;3.95;1.57;;;;;;;19.17;100.00;98805.66;1740024;81;21036;-66
2022/05/23 08:09:18;;;;;;;2.17;1.37;;;;;;;19.43;100.00;98807.20;1739094;82;21478;-65
2022/05/23 08:11:49;;;;;;;3.58;1.87;;;;;;;19.45;100.00;98803.52;1743901;81;21149;-65
2022/05/23 08:14:18;;;;;;;4.20;1.70;;;;;;;19.28;92.41;98788.03;1739253;82;20932;-66
2022/05/23 08:16:50;;;;;;;5.50;2.10;;;;;;;19.01;93.08;98808.95;1731336;82;21146;-66
2022/05/23 08:19:18;;;;;;;4.78;2.30;;;;;;;18.86;97.68;98813.80;1719329;82;21430;-65
2022/05/23 08:21:54;;;;;;;5.87;2.55;;;;;;;18.94;97.58;98805.17;1746396;82;21749;-65
2022/05/23 08:24:22;;;;;;;6.45;2.50;;;;;;;19.11;100.00;98793.85;1728206;81;21440;-65
2022/05/23 08:26:48;;;;;;;5.95;3.25;;;;;;;19.22;100.00;98798.53;1739161;81;21082;-64
2022/05/23 08:29:15;;;;;;;9.13;3.83;;;;;;;19.46;95.25;98797.64;1750134;81;21106;-65
2022/05/23 08:31:44;;;;;;;7.50;4.65;;;;;;;19.50;89.40;98800.49;1744035;82;21605;-66
2022/05/23 08:34:16;;;;;;;8.25;4.67;;;;;;;19.47;90.56;98794.30;1739818;81;21004;-64
2022/05/23 08:36:43;;;;;;;9.10;4.55;;;;;;;19.65;100.00;98800.53;1746561;82;21102;-64
2022/05/23 08:39:10;;;;;;;10.28;5.92;;;;;;;19.98;99.07;98800.19;1746880;82;21030;-65
2022/05/23 08:41:48;;;;;;;10.98;6.03;;;;;;;20.09;93.10;98808.74;1699520;82;21076;-66
2022/05/23 08:45:00;;;;;;;9.58;6.30;;;;;;;19.78;88.40;98806.20;1687183;84;21039;-66
2022/05/23 08:47:35;;;;;;;10.50;5.92;;;;;;;19.35;94.00;98804.78;1653618;85;21681;-65
2022/05/23 08:50:25;;;;;;;9.20;5.78;;;;;;;19.01;100.00;98812.28;1715164;81;21880;-65
2022/05/23 08:53:08;;;;;;;8.48;5.20;;;;;;;18.63;100.00;98801.69;1746481;82;21553;-64
2022/05/23 08:55:59;;;;;;;10.05;5.58;;;;;;;18.30;100.00;98811.44;1743312;81;21156;-67
2022/05/23 08:58:48;;;;;;;9.08;3.87;;;;;;;18.19;100.00;98820.73;1744083;82;21075;-66
2022/05/23 09:01:19;;;;;;;6.65;3.80;;;;;;;18.06;100.00;98817.75;1710372;83;21125;-64
2022/05/23 09:04:26;;;;;;;5.62;3.20;;;;;;;18.10;100.00;98812.36;1710495;83;21011;-65
2022/05/23 09:06:54;;;;;;;5.00;3.02;;;;;;;18.25;100.00;98812.47;1728079;82;21066;-65
2022/05/23 09:09:22;;;;;;;7.80;2.45;;;;;;;18.23;100.00;98812.02;1746956;82;21106;-64
2022/05/23 09:11:54;;;;;;;6.22;2.80;;;;;;;18.06;100.00;98817.75;1746834;81;21660;-64
2022/05/23 09:14:22;;;;;;;4.00;2.20;;;;;;;17.95;100.00;98811.08;1743814;81;21050;-64
2022/05/23 09:16:54;;;;;;;7.62;2.80;;;;;;;17.95;100.00;98812.46;1753504;81;21577;-65
2022/05/23 09:19:26;;;;;;;5.80;2.30;;;;;;;17.98;100.00;98811.77;1748661;82;21019;-65
2022/05/23 09:22:18;;;;;;;6.45;2.45;;;;;;;17.96;100.00;98815.42;1747284;81;21106;-65
2022/05/23 09:24:41;;;;;;;7.42;2.42;;;;;;;18.03;100.00;98814.28;1729320;82;21032;-66
2022/05/23 09:27:37;;;;;;;5.12;2.45;;;;;;;17.82;100.00;98805.30;1737134;82;21087;-66
2022/05/23 09:30:10;;;;;;;6.67;3.30;;;;;;;17.61;100.00;98810.08;1721338;83;21057;-66
2022/05/23 09:32:45;;;;;;;8.25;3.55;;;;;;;17.45;100.00;98806.34;1739452;80;21553;-65
2022/05/23 09:35:19;;;;;;;8.93;4.33;;;;;;;17.58;100.00;98804.69;1755385;80;21432;-65
2022/05/23 09:38:09;;;;;;;11.15;7.33;;;;;;;17.83;100.00;98803.59;1742682;81;21058;-64
2022/05/23 09:40:38;;;;;;;6.58;3.55;;;;;;;17.89;97.23;98798.66;1754219;80;21067;-65
2022/05/23 09:49:20;;;;;;;8.18;2.70;;;;;;;18.11;100.00;98802.93;1749957;82;21023;-64
2022/05/23 09:51:59;;;;;;;6.55;2.30;;;;;;;18.20;81.47;98799.51;1755398;80;21084;-64
2022/05/23 09:54:40;;;;;;;6.40;2.95;;;;;;;18.05;77.49;98805.13;1740426;81;20979;-63
2022/05/23 09:57:40;;;;;;;4.10;2.72;;;;;;;17.78;92.84;98809.91;1745100;82;21612;-65
2022/05/23 10:00:22;;;;;;;5.60;2.65;;;;;;;17.61;100.00;98808.70;1725392;82;21526;-64
2022/05/23 10:02:53;;;;;;;4.50;2.42;;;;;;;17.44;100.00;98809.66;1729948;83;21185;-64
2022/05/23 10:05:46;;;;;;;4.95;2.27;;;;;;;17.32;100.00;98812.39;1734846;81;21594;-65
2022/05/23 10:08:34;;;;;;;4.85;2.20;;;;;;;17.27;100.00;98818.89;1755221;82;21470;-63
2022/05/23 10:11:05;;;;;;;7.90;2.40;;;;;;;17.17;100.00;98823.44;1755655;82;21545;-64
2022/05/23 10:13:36;;;;;;;4.22;2.33;;;;;;;17.05;100.00;98823.93;1747977;82;21028;-64
2022/05/23 10:16:16;;;;;;;11.48;2.15;;;;;;;16.94;100.00;98827.66;1736487;80;21012;-64
2022/05/23 10:18:52;;;;;;;5.12;2.10;;;;;;;16.89;100.00;98825.94;1750531;82;21007;-64
2022/05/23 10:21:27;;;;;;;3.70;1.72;;;;;;;16.89;100.00;98832.00;1755128;82;21054;-65
2022/05/23 10:24:18;;;;;;;5.28;2.02;;;;;;;16.86;100.00;98838.95;1740898;82;21360;-66
2022/05/23 10:27:06;;;;;;;4.90;2.12;;;;;;;16.93;100.00;98835.69;1742051;81;21122;-63
2022/05/23 10:29:57;;;;;;;5.20;1.70;;;;;;;16.93;100.00;98826.84;1744433;82;21012;-63
2022/05/23 10:32:32;;;;;;;6.65;2.80;;;;;;;16.98;90.66;98823.09;1742200;81;21070;-64
2022/05/23 10:35:40;;;;;;;6.17;2.30;;;;;;;17.17;95.22;98815.19;1721889;82;21216;-63
2022/05/23 10:45:09;;;;;;;4.70;1.90;;;;;;;17.65;96.71;98826.14;1811627;79;23386;-63
2022/05/23 10:47:58;;;;;;;3.42;1.92;;;;;;;17.46;96.72;98820.34;1739594;82;21125;-62
2022/05/23 10:50:38;;;;;;;6.47;1.92;;;;;;;17.28;98.11;98826.01;1697564;84;21093;-64
2022/05/23 10:53:19;;;;;;;8.45;2.00;;;;;;;17.15;98.73;98842.20;1693150;84;21627;-64
2022/05/23 10:56:17;;;;;;;4.20;1.87;;;;;;;16.99;92.60;98838.47;1702154;83;21436;-64
2022/05/23 10:58:59;;;;;;;4.08;1.77;;;;;;;16.84;95.91;98859.67;1687459;84;21098;-62
2022/05/23 11:01:55;;;;;;;7.20;1.57;;;;;;;16.49;89.98;98859.61;1697992;84;21110;-62
2022/05/23 11:04:39;;;;;;;3.37;1.45;;;;;;;15.92;93.45;98860.83;1695048;84;21122;-61
2022/05/23 11:07:20;;;;;;;5.75;1.52;;;;;;;15.52;98.06;98861.42;1690440;84;21049;-62
2022/05/23 11:10:14;;;;;;;5.10;1.70;;;;;;;15.22;100.00;98872.21;1695797;83;20996;-62
2022/05/23 11:13:01;;;;;;;5.60;1.80;;;;;;;15.04;100.00;98877.44;1708498;84;21707;-63
2022/05/23 11:15:36;;;;;;;5.53;1.92;;;;;;;14.95;100.00;98884.27;1708147;84;21149;-61
2022/05/23 11:18:47;;;;;;;4.72;2.05;;;;;;;14.90;100.00;98878.16;1712334;83;21582;-61
2022/05/23 11:21:24;;;;;;;5.45;1.80;;;;;;;14.67;100.00;98882.13;1689940;84;21824;-62
2022/05/23 11:24:00;;;;;;;5.60;1.52;;;;;;;14.38;100.00;98887.60;1690485;84;21054;-62
2022/05/23 11:26:37;;;;;;;6.70;1.50;;;;;;;14.23;100.00;98885.28;1686646;85;21022;-64
2022/05/23 11:35:12;;;;;;;4.33;1.30;;;;;;;14.07;100.00;98882.70;1658809;86;21578;-62
2022/05/23 11:37:45;;;;;;;2.45;1.30;;;;;;;14.02;100.00;98871.91;1644787;85;21118;-61
2022/05/23 11:40:16;;;;;;;4.65;1.30;;;;;;;14.06;100.00;98866.61;1683619;85;21566;-61
2022/05/23 11:43:01;;;;;;;3.65;1.55;;;;;;;14.18;100.00;98860.77;1663956;84;21153;-61
2022/05/23 11:48:46;;;;;;;4.03;1.87;;;;;;;14.48;100.00;98853.67;1679146;84;21094;-62
2022/05/23 11:51:36;;;;;;;5.62;1.90;;;;;;;14.67;100.00;98858.84;1682673;84;21102;-62
2022/05/23 11:54:13;;;;;;;6.17;3.10;;;;;;;14.80;100.00;98857.92;1682767;85;21698;-62
2022/05/23 11:57:06;;;;;;;7.05;4.05;;;;;;;14.98;100.00;98856.81;1686101;84;21133;-62
2022/05/23 11:59:39;;;;;;;4.85;2.22;;;;;;;15.18;100.00;98853.42;1709518;84;21066;-62
2022/05/23 12:02:12;;;;;;;3.95;2.72;;;;;;;15.40;100.00;98853.25;1681174;85;21074;-62
2022/05/23 12:04:55;;;;;;;3.62;1.98;;;;;;;15.57;100.00;98853.81;1693574;84;21137;-62
2022/05/23 12:07:37;;;;;;;7.10;2.80;;;;;;;15.69;100.00;98849.84;1660616;84;21022;-62
2022/05/23 12:10:30;;;;;;;6.40;2.77;;;;;;;15.87;100.00;98851.98;1709753;84;21627;-64
2022/05/23 12:13:27;;;;;;;6.47;3.12;;;;;;;16.11;100.00;98857.70;1697718;84;21601;-63
2022/05/23 12:15:54;;;;;;;4.58;2.40;;;;;;;16.36;100.00;98847.73;1685725;84;21022;-62
2022/05/23 12:18:34;;;;;;;4.83;2.47;;;;;;;16.65;100.00;98855.20;1676208;85;21070;-62
2022/05/23 12:21:06;;;;;;;5.17;2.15;;;;;;;16.82;100.00;98845.47;1689894;85;21565;-61
2022/05/23 12:23:39;;;;;;;5.90;3.12;;;;;;;17.05;100.00;98848.67;1719409;83;21026;-61
2022/05/23 12:26:14;;;;;;;4.60;1.80;;;;;;;17.23;97.85;98839.95;1728039;82;21050;-62
2022/05/23 12:28:46;;;;;;;5.42;2.00;;;;;;;17.27;93.37;98833.21;1741595;82;21000;-63
2022/05/23 12:31:18;;;;;;;3.05;1.67;;;;;;;17.45;100.00;98839.36;1714468;82;21102;-63
2022/05/23 12:33:49;;;;;;;4.92;1.55;;;;;;;17.73;100.00;98844.52;1742537;82;21069;-62
2022/05/23 12:36:20;;;;;;;3.98;1.45;;;;;;;17.98;100.00;98836.55;1744920;82;21054;-62
2022/05/23 12:38:55;;;;;;;2.98;1.60;;;;;;;18.10;90.20;98838.52;1742162;82;21077;-63
2022/05/23 12:41:46;;;;;;;7.92;3.00;;;;;;;17.99;84.17;98850.56;1695802;84;21053;-62
2022/05/23 12:44:49;;;;;;;3.87;1.65;;;;;;;17.74;82.15;98857.96;1694379;84;21068;-62
2022/05/23 12:47:51;;;;;;;3.55;1.52;;;;;;;17.43;86.71;98876.05;1737390;82;21130;-61
2022/05/23 12:50:26;;;;;;;7.03;2.08;;;;;;;17.00;100.00;98891.52;1721772;82;21015;-61
2022/05/23 12:53:16;;;;;;;7.97;1.95;;;;;;;15.84;100.00;98888.28;1735291;82;21165;-62
2022/05/23 12:56:16;;;;;;;5.12;2.52;;;;;;;14.34;100.00;98905.00;1664646;83;21098;-62
2022/05/23 12:59:13;;;;;;;6.25;2.05;;;;;;;13.24;100.00;98915.72;1720050;83;21055;-61